Time;durP1;ratioP1;P1;durP2;ratioP2;P2;SDS_P1;SDS_P2;PMS_P1;PMS_P2;Temp;Humidity;BMP_temperature;BMP_pressure;BME280_temperature;BME280_humidity;BME280_pressure;Samples;Min_cycle;Max_cycle;Signal;HPM_P1;HPM_P2
2022/01/04 00:02:11;;;;;;;22.02;19.58;;;-7.90;87.00;-8.80;96829.00;;;;4939288;28;87362;-61
2022/01/04 00:04:38;;;;;;;20.23;18.13;;;-7.90;87.00;-8.80;96829.00;;;;4941571;28;87326;-61
2022/01/04 00:07:04;;;;;;;20.27;18.20;;;-8.00;86.80;-8.80;96844.00;;;;4940987;28;87616;-61
2022/01/04 00:09:30;;;;;;;19.20;17.27;;;-7.90;87.50;-8.80;96845.00;;;;4935126;28;89100;-61
2022/01/04 00:13:21;;;;;;;18.48;16.58;;;-8.00;86.70;-8.80;96842.00;;;;4929408;28;87586;-61
2022/01/04 00:14:43;;;;;;;19.70;17.60;;;-8.00;86.80;-8.90;96841.00;;;;4947690;28;87435;-60
2022/01/04 00:17:09;;;;;;;19.98;16.73;;;-8.00;86.80;-8.80;96837.00;;;;4938762;28;87387;-59
2022/01/04 00:19:35;;;;;;;17.90;16.00;;;-8.00;86.80;-8.80;96839.00;;;;4937830;28;88497;-60
2022/01/04 00:22:03;;;;;;;19.40;17.38;;;-7.90;86.70;-8.90;96840.00;;;;4940682;28;88310;-57
2022/01/04 00:24:29;;;;;;;19.13;17.23;;;-8.00;86.70;-8.90;96829.00;;;;4941060;28;87193;-57
2022/01/04 00:26:55;;;;;;;20.13;18.02;;;-8.00;86.90;-8.90;96839.00;;;;4937098;28;87081;-59
2022/01/04 00:29:21;;;;;;;20.13;18.02;;;-8.00;86.90;-8.90;96839.00;;;;4929536;28;88195;-59
2022/01/04 00:31:48;;;;;;;20.15;18.15;;;-8.00;86.90;-8.90;96836.00;;;;4940529;28;87845;-60
2022/01/04 00:34:14;;;;;;;20.58;18.58;;;-8.00;86.90;-8.90;96839.00;;;;4940224;28;87058;-59
2022/01/04 00:36:40;;;;;;;21.67;19.30;;;-8.00;86.80;-8.90;96849.00;;;;4940974;28;86329;-59
2022/01/04 00:39:06;;;;;;;21.35;19.13;;;-8.00;86.90;-8.90;96854.00;;;;4939508;28;87558;-59
2022/01/04 00:41:32;;;;;;;20.08;18.00;;;-8.00;86.90;-8.80;96841.00;;;;4940355;28;87404;-60
2022/01/04 00:43:58;;;;;;;20.02;17.92;;;-8.00;86.90;-8.80;96863.00;;;;4939561;28;87913;-60
2022/01/04 00:46:24;;;;;;;19.80;17.80;;;-8.00;86.80;-8.80;96854.00;;;;4940314;28;87507;-60
2022/01/04 00:49:10;;;;;;;19.65;17.65;;;-7.90;86.80;-8.80;96844.00;;;;4940566;28;87639;-62
2022/01/04 00:51:42;;;;;;;20.70;18.67;;;-8.00;86.70;-8.80;96857.00;;;;4935669;28;87330;-59
2022/01/04 00:54:09;;;;;;;21.63;19.35;;;-7.90;86.90;-8.80;96858.00;;;;4940225;28;87350;-59
2022/01/04 00:56:36;;;;;;;21.73;19.50;;;-7.90;87.80;-8.80;96863.00;;;;4940209;28;87021;-59
2022/01/04 00:59:03;;;;;;;21.77;19.58;;;-7.90;87.10;-8.80;96865.00;;;;4939987;28;87620;-59
2022/01/04 01:01:30;;;;;;;22.13;19.83;;;-7.90;87.10;-8.80;96861.00;;;;4940147;28;88571;-60
2022/01/04 01:03:57;;;;;;;21.45;19.27;;;-7.90;87.10;-8.80;96860.00;;;;4939846;28;87236;-60
2022/01/04 01:06:23;;;;;;;22.10;19.80;;;-8.00;87.00;-8.80;96859.00;;;;4940145;28;87232;-61
2022/01/04 01:08:50;;;;;;;22.00;19.77;;;-7.90;87.40;-8.80;96865.00;;;;4939328;28;88374;-61
2022/01/04 01:11:17;;;;;;;22.58;20.25;;;-7.90;87.30;-8.80;96862.00;;;;4939262;28;88265;-63
2022/01/04 01:13:44;;;;;;;22.85;20.48;;;-7.90;87.30;-8.80;96871.00;;;;4929658;28;87696;-61
2022/01/04 01:16:11;;;;;;;24.20;21.70;;;-7.90;87.40;-8.80;96865.00;;;;4940558;28;87468;-60
2022/01/04 01:18:38;;;;;;;23.27;20.80;;;-7.90;87.40;-8.80;96863.00;;;;4940057;28;89001;-61
2022/01/04 01:21:06;;;;;;;22.10;19.88;;;-8.00;87.30;-8.80;96872.00;;;;4929534;28;89765;-61
2022/01/04 01:23:35;;;;;;;24.05;21.55;;;-8.00;87.20;-8.90;96865.00;;;;4940082;28;87045;-61
2022/01/04 01:26:07;;;;;;;25.50;22.80;;;-8.00;87.60;-8.80;96879.00;;;;4940762;28;86306;-61
2022/01/04 01:28:34;;;;;;;25.35;22.17;;;-8.00;87.50;-8.90;96870.00;;;;4939988;28;87594;-60
2022/01/04 01:31:01;;;;;;;23.50;21.10;;;-8.00;87.60;-8.80;96873.00;;;;4939220;28;87406;-61
2022/01/04 01:33:28;;;;;;;24.95;22.25;;;-8.00;87.80;-8.90;96871.00;;;;4939896;28;88020;-61
2022/01/04 01:35:56;;;;;;;25.38;22.85;;;-7.90;88.10;-8.80;96879.00;;;;4940443;28;87352;-61
2022/01/04 01:38:25;;;;;;;23.23;20.73;;;-8.00;87.90;-8.80;96862.00;;;;4939710;28;88953;-61
2022/01/04 01:40:53;;;;;;;22.90;20.45;;;-8.00;88.00;-8.90;96871.00;;;;4939932;28;89169;-60
2022/01/04 01:43:20;;;;;;;25.70;22.08;;;-8.00;88.10;-8.90;96872.00;;;;4935241;28;87567;-61
2022/01/04 01:45:46;;;;;;;25.58;20.98;;;-8.00;88.10;-8.80;96874.00;;;;4940233;28;87260;-61
2022/01/04 01:48:12;;;;;;;26.13;23.15;;;-8.00;88.10;-8.80;96865.00;;;;4938173;28;87988;-61
2022/01/04 01:50:39;;;;;;;28.65;25.27;;;-8.00;88.10;-8.80;96871.00;;;;4937038;28;87530;-58
2022/01/04 01:53:05;;;;;;;29.98;26.13;;;-8.00;88.10;-8.90;96867.00;;;;4937545;28;88147;-60
2022/01/04 01:55:32;;;;;;;36.28;29.70;;;-8.00;88.10;-8.80;96872.00;;;;4939612;28;87107;-60
2022/01/04 01:57:58;;;;;;;36.20;28.38;;;-8.00;88.20;-8.80;96875.00;;;;4937867;28;89664;-59
2022/01/04 02:00:27;;;;;;;34.35;28.23;;;-7.90;88.30;-8.90;96871.00;;;;4938979;28;88871;-60
2022/01/04 02:02:54;;;;;;;36.38;29.17;;;-7.90;88.20;-8.90;96877.00;;;;4942132;28;87039;-62
2022/01/04 02:05:21;;;;;;;33.58;29.40;;;-8.00;88.40;-8.90;96876.00;;;;4943050;28;87131;-62
2022/01/04 02:07:47;;;;;;;37.60;32.25;;;-8.00;88.50;-8.90;96880.00;;;;4930266;28;87611;-62
2022/01/04 02:10:14;;;;;;;36.50;31.65;;;-8.00;88.70;-8.90;96871.00;;;;4930625;28;87731;-55
2022/01/04 02:12:47;;;;;;;36.78;31.17;;;-8.00;88.70;-8.90;96871.00;;;;4942816;28;87136;-55
2022/01/04 02:15:26;;;;;;;39.42;32.38;;;-8.00;88.80;-8.90;96871.00;;;;4943129;28;86356;-56
2022/01/04 02:17:52;;;;;;;40.10;33.45;;;-8.00;88.80;-8.90;96881.00;;;;4942415;28;87829;-57
2022/01/04 02:20:19;;;;;;;39.58;32.63;;;-8.00;88.80;-8.90;96890.00;;;;4949282;28;87379;-61
2022/01/04 02:22:45;;;;;;;39.25;34.78;;;-8.00;89.00;-8.90;96887.00;;;;4942087;28;88275;-60
2022/01/04 02:25:12;;;;;;;41.75;35.50;;;-8.00;89.00;-8.90;96899.00;;;;4953316;28;87527;-60
2022/01/04 02:27:40;;;;;;;40.05;35.05;;;-8.10;88.90;-8.90;96900.00;;;;4941775;28;87547;-60
2022/01/04 02:30:11;;;;;;;40.67;33.95;;;-8.00;89.10;-8.90;96900.00;;;;4941387;28;88089;-60
2022/01/04 02:32:38;;;;;;;38.65;33.28;;;-8.00;89.10;-8.90;96900.00;;;;4942494;28;86919;-60
2022/01/04 02:35:06;;;;;;;37.15;33.17;;;-8.00;89.10;-8.90;96897.00;;;;4932773;28;87240;-61
2022/01/04 02:37:33;;;;;;;40.45;34.13;;;-8.00;89.00;-8.90;96902.00;;;;4941594;28;87700;-59
2022/01/04 02:40:00;;;;;;;37.92;33.17;;;-8.00;89.10;-8.90;96892.00;;;;4942368;28;88519;-61
2022/01/04 02:42:26;;;;;;;37.28;33.20;;;-8.00;90.00;-8.90;96892.00;;;;4942254;28;87065;-59
2022/01/04 02:44:52;;;;;;;37.30;33.30;;;-8.00;89.30;-8.90;96886.00;;;;4941504;28;87097;-59
2022/01/04 02:47:18;;;;;;;36.90;32.92;;;-8.00;89.20;-8.90;96888.00;;;;4941548;28;88195;-59
2022/01/04 02:49:45;;;;;;;38.53;34.17;;;-8.00;89.30;-8.90;96886.00;;;;4941907;28;88389;-59
2022/01/04 02:52:11;;;;;;;40.25;33.38;;;-8.00;89.20;-8.90;96895.00;;;;4929049;28;87560;-57
2022/01/04 02:54:38;;;;;;;39.22;33.65;;;-8.00;89.10;-8.90;96908.00;;;;4925802;28;87127;-59
2022/01/04 02:57:04;;;;;;;37.83;33.60;;;-8.00;89.10;-8.80;96895.00;;;;4930981;28;88720;-61
2022/01/04 02:59:30;;;;;;;42.35;35.65;;;-8.00;89.20;-8.80;96903.00;;;;4941523;28;87361;-62
2022/01/04 03:01:56;;;;;;;39.10;33.95;;;-7.90;89.10;-8.80;96912.00;;;;4942125;28;87137;-61
2022/01/04 03:04:22;;;;;;;38.25;34.03;;;-7.90;89.10;-8.80;96911.00;;;;4942055;28;86697;-61
2022/01/04 03:06:48;;;;;;;37.42;33.42;;;-7.90;89.10;-8.80;96919.00;;;;4931791;28;87586;-61
2022/01/04 03:09:15;;;;;;;41.00;34.80;;;-7.90;88.90;-8.80;96934.00;;;;4941187;28;87833;-55
2022/01/04 03:11:42;;;;;;;39.08;33.60;;;-7.90;88.80;-8.80;96912.00;;;;4935408;28;87981;-60
2022/01/04 03:14:08;;;;;;;37.63;33.35;;;-7.90;88.90;-8.80;96918.00;;;;4940774;28;87449;-60
2022/01/04 03:16:35;;;;;;;40.47;36.08;;;-7.90;88.80;-8.70;96928.00;;;;4941606;28;87709;-60
2022/01/04 03:19:10;;;;;;;42.65;37.10;;;-7.90;88.80;-8.70;96927.00;;;;4941087;28;87309;-60
2022/01/04 03:21:43;;;;;;;41.13;36.35;;;-7.90;88.70;-8.70;96919.00;;;;4939293;28;87488;-60
2022/01/04 03:24:13;;;;;;;42.33;35.72;;;-7.80;88.80;-8.70;96915.00;;;;4938192;28;87247;-61
2022/01/04 03:26:40;;;;;;;37.88;33.83;;;-7.80;88.70;-8.70;96926.00;;;;4941177;28;87549;-62
2022/01/04 03:29:09;;;;;;;40.50;36.05;;;-7.80;88.80;-8.70;96942.00;;;;4941376;28;87340;-61
2022/01/04 03:31:35;;;;;;;40.47;36.08;;;-7.80;88.50;-8.70;96950.00;;;;4940599;28;87460;-61
2022/01/04 03:34:03;;;;;;;41.75;36.15;;;-7.80;88.30;-8.80;96941.00;;;;4940774;28;87496;-61
2022/01/04 03:36:29;;;;;;;38.03;34.03;;;-7.90;88.30;-8.80;96940.00;;;;4940842;28;88804;-61
2022/01/04 03:38:57;;;;;;;44.28;37.60;;;-7.90;88.50;-8.70;96944.00;;;;4940828;28;88305;-61
2022/01/04 03:41:25;;;;;;;39.90;35.58;;;-7.90;88.80;-8.70;96941.00;;;;4941763;28;87354;-60
2022/01/04 03:43:53;;;;;;;42.05;36.13;;;-7.80;88.90;-8.80;96939.00;;;;4937379;28;87091;-61
2022/01/04 03:46:19;;;;;;;40.28;33.72;;;-7.90;88.70;-8.80;96942.00;;;;4941383;28;87518;-57
2022/01/04 03:48:46;;;;;;;46.50;38.75;;;-7.90;88.80;-8.80;96942.00;;;;4941111;28;87877;-57
2022/01/04 03:51:12;;;;;;;38.92;34.83;;;-7.90;88.60;-8.80;96940.00;;;;4924318;28;87340;-57
2022/01/04 03:53:38;;;;;;;42.53;37.50;;;-7.90;88.70;-8.70;96949.00;;;;4941892;28;86409;-59
2022/01/04 03:56:05;;;;;;;42.92;35.78;;;-7.90;88.60;-8.70;96952.00;;;;4941822;28;87732;-60
2022/01/04 03:58:32;;;;;;;38.28;34.08;;;-7.80;88.50;-8.70;96952.00;;;;4940972;28;87337;-61
2022/01/04 04:00:58;;;;;;;38.58;33.55;;;-7.80;88.40;-8.70;96945.00;;;;4939949;28;88292;-61
2022/01/04 04:03:24;;;;;;;39.80;34.67;;;-7.80;88.30;-8.70;96953.00;;;;4926099;28;87823;-62
2022/01/04 04:05:50;;;;;;;42.67;34.42;;;-7.80;88.30;-8.70;96963.00;;;;4940398;28;87526;-61
2022/01/04 04:08:17;;;;;;;45.55;37.05;;;-7.80;88.30;-8.70;96959.00;;;;4939613;28;87449;-62
2022/01/04 04:10:43;;;;;;;44.03;36.58;;;-7.80;88.20;-8.70;96947.00;;;;4924867;28;87501;-61
2022/01/04 04:13:09;;;;;;;45.88;37.05;;;-7.80;88.20;-8.70;96944.00;;;;4940425;28;87622;-61
2022/01/04 04:15:38;;;;;;;43.70;35.10;;;-7.80;88.20;-8.70;96948.00;;;;4927667;28;87717;-62
2022/01/04 04:18:04;;;;;;;38.65;34.08;;;-7.80;88.10;-8.70;96953.00;;;;4940440;28;87868;-62
2022/01/04 04:20:30;;;;;;;41.67;35.42;;;-7.80;88.00;-8.70;96952.00;;;;4939834;28;87470;-62
2022/01/04 04:22:56;;;;;;;41.08;36.60;;;-7.80;88.20;-8.70;96951.00;;;;4940450;28;87374;-62
2022/01/04 04:25:22;;;;;;;52.47;41.22;;;-7.80;88.30;-8.70;96949.00;;;;4939170;28;89593;-62
2022/01/04 04:27:49;;;;;;;49.40;41.22;;;-7.90;88.20;-8.70;96952.00;;;;4929461;28;88327;-61
2022/01/04 04:30:15;;;;;;;48.15;39.88;;;-7.80;88.30;-8.70;96948.00;;;;4936314;28;87550;-61
2022/01/04 04:32:41;;;;;;;47.13;38.65;;;-7.90;88.20;-8.80;96944.00;;;;4940577;28;87367;-61
2022/01/04 04:35:07;;;;;;;47.42;40.03;;;-7.90;88.20;-8.80;96959.00;;;;4930937;28;87620;-61
2022/01/04 04:37:34;;;;;;;43.08;36.53;;;-7.90;88.20;-8.80;96952.00;;;;4939595;28;87515;-61
2022/01/04 04:40:00;;;;;;;42.42;35.10;;;-7.90;88.20;-8.80;96950.00;;;;4939871;28;87420;-61
2022/01/04 04:42:26;;;;;;;41.05;34.60;;;-7.90;88.20;-8.80;96947.00;;;;4937109;28;87300;-61
2022/01/04 04:44:52;;;;;;;41.78;34.58;;;-8.00;88.10;-8.80;96946.00;;;;4940050;28;87636;-61
2022/01/04 04:47:18;;;;;;;41.53;35.03;;;-8.00;88.10;-8.90;96939.00;;;;4940025;28;87682;-62
2022/01/04 04:49:44;;;;;;;42.30;34.80;;;-8.00;88.20;-8.90;96955.00;;;;4938962;28;88502;-61
2022/01/04 04:52:11;;;;;;;41.10;34.42;;;-8.10;88.20;-8.90;96957.00;;;;4940250;28;87004;-61
2022/01/04 04:54:37;;;;;;;44.47;35.00;;;-8.00;88.70;-8.90;96967.00;;;;4939692;28;87684;-62
2022/01/04 04:57:03;;;;;;;38.17;33.30;;;-8.10;88.80;-8.90;96963.00;;;;4931934;28;87763;-62
2022/01/04 04:59:29;;;;;;;38.50;33.40;;;-8.00;88.80;-8.90;96960.00;;;;4939918;28;87769;-62
2022/01/04 05:01:56;;;;;;;39.25;32.83;;;-8.00;88.70;-8.80;96973.00;;;;4939932;28;87099;-62
2022/01/04 05:04:22;;;;;;;37.88;32.90;;;-8.00;88.60;-8.80;96969.00;;;;4939607;28;87984;-62
2022/01/04 05:06:48;;;;;;;36.17;30.25;;;-8.00;88.40;-8.80;96982.00;;;;4940011;28;87101;-62
2022/01/04 05:09:14;;;;;;;35.13;31.05;;;-8.00;88.40;-8.80;96985.00;;;;4939468;28;87654;-61
2022/01/04 05:11:40;;;;;;;35.08;29.42;;;-7.90;88.50;-8.80;96977.00;;;;4939147;28;88034;-62
2022/01/04 05:14:06;;;;;;;32.53;27.70;;;-7.90;88.30;-8.80;96977.00;;;;4938665;28;88498;-62
2022/01/04 05:16:32;;;;;;;32.17;28.50;;;-8.00;88.10;-8.80;96978.00;;;;4939391;28;88209;-62
2022/01/04 05:18:59;;;;;;;33.80;28.17;;;-8.00;88.10;-8.90;96983.00;;;;4939732;28;87015;-61
2022/01/04 05:21:25;;;;;;;34.83;28.17;;;-8.00;88.10;-8.80;96976.00;;;;4909190;28;87103;-62
2022/01/04 05:23:52;;;;;;;34.85;29.13;;;-8.00;88.20;-8.80;96989.00;;;;4938947;28;88687;-62
2022/01/04 05:26:18;;;;;;;34.38;28.13;;;-8.00;88.20;-8.80;96997.00;;;;4939456;28;87531;-62
2022/01/04 05:28:45;;;;;;;33.35;29.30;;;-8.00;88.20;-8.80;96997.00;;;;4939681;28;86962;-62
2022/01/04 05:31:15;;;;;;;34.00;28.65;;;-7.90;88.40;-8.80;97003.00;;;;4938662;28;86494;-61
2022/01/04 05:33:42;;;;;;;36.67;28.67;;;-7.90;88.30;-8.80;97013.00;;;;4938915;28;87991;-61
2022/01/04 05:36:08;;;;;;;35.33;29.85;;;-8.00;88.20;-8.80;97003.00;;;;4941233;28;87464;-60
2022/01/04 05:38:34;;;;;;;33.45;28.55;;;-7.90;88.30;-8.80;97001.00;;;;4949539;28;88437;-60
2022/01/04 05:41:00;;;;;;;33.72;28.65;;;-7.90;88.40;-8.80;96997.00;;;;4942633;28;86983;-61
2022/01/04 05:43:26;;;;;;;32.63;26.70;;;-8.00;88.10;-8.90;96997.00;;;;4942164;28;88789;-62
2022/01/04 05:45:52;;;;;;;32.03;27.58;;;-8.00;88.10;-8.90;96992.00;;;;4942622;28;87396;-61
2022/01/04 05:48:20;;;;;;;34.00;27.65;;;-8.00;88.20;-8.90;96997.00;;;;4929164;28;87853;-62
2022/01/04 05:50:48;;;;;;;32.45;26.35;;;-8.00;88.40;-8.90;96997.00;;;;4941862;28;87197;-62
2022/01/04 05:53:14;;;;;;;34.65;26.55;;;-8.00;88.10;-8.90;97001.00;;;;4942677;28;87653;-61
2022/01/04 05:55:40;;;;;;;31.48;26.02;;;-8.00;88.40;-8.90;97002.00;;;;4942645;28;88551;-61
2022/01/04 05:58:07;;;;;;;33.13;27.08;;;-8.10;88.40;-8.90;97002.00;;;;4942320;28;87090;-62
2022/01/04 06:00:33;;;;;;;34.28;28.25;;;-8.10;88.50;-8.90;97011.00;;;;4942373;28;88241;-61
2022/01/04 06:03:00;;;;;;;34.58;29.45;;;-8.00;88.20;-8.90;97011.00;;;;4941676;28;88557;-61
2022/01/04 06:05:28;;;;;;;33.85;29.13;;;-8.00;88.10;-8.90;97011.00;;;;4942077;28;88078;-61
2022/01/04 06:07:54;;;;;;;34.40;29.92;;;-8.10;88.00;-8.90;97013.00;;;;4917864;28;87339;-62
2022/01/04 06:10:21;;;;;;;39.50;31.38;;;-8.00;88.90;-8.90;97012.00;;;;4941394;28;87132;-61
2022/01/04 06:15:15;;;;;;;41.33;32.97;;;-8.00;88.10;-8.90;97022.00;;;;4941650;28;87496;-61
2022/01/04 06:17:49;;;;;;;46.65;34.70;;;-8.00;88.10;-8.90;97030.00;;;;4940686;28;87535;-61
2022/01/04 06:20:21;;;;;;;42.15;32.60;;;-8.10;88.10;-8.90;97014.00;;;;4942162;28;86405;-62
2022/01/04 06:22:49;;;;;;;45.30;34.65;;;-8.10;88.10;-9.00;97021.00;;;;4949139;28;88127;-60
2022/01/04 06:25:18;;;;;;;49.08;36.28;;;-8.10;88.50;-8.90;97035.00;;;;4941754;28;87528;-63
2022/01/04 06:27:47;;;;;;;46.92;35.72;;;-8.10;88.50;-8.90;97014.00;;;;4940077;28;88894;-61
2022/01/04 06:30:19;;;;;;;48.88;34.63;;;-8.10;88.50;-8.90;97041.00;;;;4941887;28;87220;-61
2022/01/04 06:32:46;;;;;;;46.15;34.08;;;-8.00;88.60;-8.90;97044.00;;;;4923347;28;87990;-61
2022/01/04 06:35:14;;;;;;;52.88;37.10;;;-8.00;88.30;-8.90;97041.00;;;;4942322;28;87418;-61
2022/01/04 06:37:42;;;;;;;45.15;34.13;;;-8.10;88.20;-8.90;97052.00;;;;4941122;28;87747;-61
2022/01/04 06:40:10;;;;;;;45.58;35.72;;;-8.10;88.20;-8.90;97049.00;;;;4941249;28;87590;-61
2022/01/04 06:42:36;;;;;;;50.58;35.65;;;-8.00;88.60;-8.90;97059.00;;;;4942066;28;87619;-61
2022/01/04 06:45:04;;;;;;;45.35;33.53;;;-8.10;88.60;-8.90;97069.00;;;;4937578;28;87395;-61
2022/01/04 06:47:30;;;;;;;42.10;33.25;;;-8.00;88.70;-8.90;97070.00;;;;4945672;28;87443;-62
2022/01/04 06:49:57;;;;;;;39.45;31.98;;;-8.00;88.60;-8.80;97070.00;;;;4941709;28;87336;-61
2022/01/04 06:52:23;;;;;;;41.55;33.08;;;-8.00;88.30;-8.80;97065.00;;;;4931843;28;88484;-61
2022/01/04 06:54:49;;;;;;;40.67;31.15;;;-7.90;88.20;-8.80;97069.00;;;;4925189;28;89497;-62
2022/01/04 06:57:16;;;;;;;39.47;30.98;;;-8.00;87.90;-8.80;97077.00;;;;4941313;28;87284;-61
2022/01/04 06:59:42;;;;;;;38.70;31.45;;;-8.00;87.80;-8.80;97090.00;;;;4942033;28;87505;-62
2022/01/04 07:02:08;;;;;;;38.60;31.17;;;-7.90;88.00;-8.80;97076.00;;;;4941962;28;87624;-64
2022/01/04 07:04:34;;;;;;;37.15;31.15;;;-7.90;87.50;-8.80;97078.00;;;;4924936;28;87370;-62
2022/01/04 07:07:00;;;;;;;38.05;29.15;;;-7.90;87.40;-8.80;97088.00;;;;4941567;28;87323;-62
2022/01/04 07:09:27;;;;;;;32.85;28.05;;;-7.90;87.10;-8.80;97093.00;;;;4941816;28;86517;-62
2022/01/04 07:11:54;;;;;;;31.17;27.60;;;-7.90;86.70;-8.80;97086.00;;;;4940815;28;87622;-62
2022/01/04 07:14:20;;;;;;;32.50;27.50;;;-7.90;86.60;-8.80;97093.00;;;;4930036;28;88624;-62
2022/01/04 07:16:46;;;;;;;32.47;27.38;;;-7.90;86.60;-8.80;97090.00;;;;4940557;28;88311;-61
2022/01/04 07:19:12;;;;;;;34.47;27.55;;;-7.90;86.70;-8.80;97091.00;;;;4941392;28;87087;-61
2022/01/04 07:21:38;;;;;;;30.92;26.42;;;-7.90;86.90;-8.70;97082.00;;;;4940611;28;88183;-62
2022/01/04 07:24:05;;;;;;;29.48;25.92;;;-7.90;86.60;-8.70;97090.00;;;;4941033;28;87535;-62
2022/01/04 07:26:31;;;;;;;34.97;26.20;;;-7.90;86.60;-8.70;97093.00;;;;4941652;28;87345;-61
2022/01/04 07:28:58;;;;;;;32.53;26.52;;;-7.80;86.70;-8.70;97096.00;;;;4941534;28;87263;-61
2022/01/04 07:31:24;;;;;;;32.88;26.27;;;-7.80;86.60;-8.60;97101.00;;;;4940215;28;87758;-62
2022/01/04 07:33:51;;;;;;;29.58;26.38;;;-7.80;86.40;-8.60;97079.00;;;;4941771;28;88500;-62
2022/01/04 07:36:18;;;;;;;31.42;26.40;;;-7.70;86.00;-8.60;97079.00;;;;4941632;28;87433;-62
2022/01/04 07:38:44;;;;;;;31.00;25.77;;;-7.70;85.80;-8.60;97084.00;;;;4940857;28;87061;-62
2022/01/04 07:41:10;;;;;;;33.60;27.45;;;-7.70;85.80;-8.60;97087.00;;;;4940762;28;88651;-61
2022/01/04 07:43:37;;;;;;;34.17;27.85;;;-7.70;85.80;-8.60;97099.00;;;;4940926;28;88893;-61
2022/01/04 07:46:03;;;;;;;31.13;26.52;;;-7.70;85.70;-8.60;97089.00;;;;4941310;28;87224;-61
2022/01/04 07:48:30;;;;;;;31.95;26.00;;;-7.80;85.60;-8.60;97091.00;;;;4940169;28;87235;-63
2022/01/04 07:50:58;;;;;;;32.50;25.33;;;-7.70;85.70;-8.50;97101.00;;;;4939806;28;88544;-62
2022/01/04 07:53:25;;;;;;;30.77;27.10;;;-7.70;85.50;-8.50;97107.00;;;;4940614;28;87281;-62
2022/01/04 07:55:51;;;;;;;29.05;24.33;;;-7.60;85.60;-8.40;97094.00;;;;4941436;28;86963;-61
2022/01/04 07:58:18;;;;;;;27.92;24.20;;;-7.60;84.90;-8.40;97105.00;;;;4933376;28;87215;-62
2022/01/04 08:00:44;;;;;;;29.65;25.67;;;-7.50;84.60;-8.40;97108.00;;;;4940578;28;88899;-62
2022/01/04 08:03:10;;;;;;;28.42;25.33;;;-7.50;84.30;-8.30;97103.00;;;;4940656;28;87404;-63
2022/01/04 08:05:37;;;;;;;29.23;25.42;;;-7.40;84.40;-8.30;97107.00;;;;4954727;28;87910;-61
2022/01/04 08:08:04;;;;;;;29.25;26.00;;;-7.40;84.10;-8.30;97106.00;;;;4940921;28;87481;-61
2022/01/04 08:10:30;;;;;;;28.38;25.05;;;-7.50;84.10;-8.30;97109.00;;;;4939488;28;87532;-61
2022/01/04 08:12:57;;;;;;;29.50;26.30;;;-7.50;84.00;-8.20;97107.00;;;;4940000;28;87507;-61
2022/01/04 08:15:23;;;;;;;28.65;24.30;;;-7.40;84.30;-8.10;97115.00;;;;4925779;28;87053;-61
2022/01/04 08:17:49;;;;;;;30.13;25.20;;;-7.30;84.80;-8.10;97106.00;;;;4940463;28;87002;-61
2022/01/04 08:20:17;;;;;;;26.75;23.80;;;-7.30;83.80;-8.10;97108.00;;;;4940429;28;87506;-61
2022/01/04 08:22:43;;;;;;;27.70;24.70;;;-7.20;83.50;-8.10;97105.00;;;;4940210;28;88620;-61
2022/01/04 08:25:11;;;;;;;29.98;23.95;;;-7.30;83.30;-8.10;97113.00;;;;4940367;28;87386;-61
2022/01/04 08:27:38;;;;;;;29.35;24.80;;;-7.30;83.10;-8.10;97103.00;;;;4940216;28;87092;-63
2022/01/04 08:30:08;;;;;;;29.15;24.90;;;-7.30;83.20;-8.10;97112.00;;;;4939572;28;88639;-61
2022/01/04 08:32:35;;;;;;;27.73;24.83;;;-7.30;83.20;-8.00;97108.00;;;;4939943;28;88865;-61
2022/01/04 08:35:02;;;;;;;29.02;24.92;;;-7.20;83.60;-7.90;97117.00;;;;4941034;28;87000;-62
2022/01/04 08:37:29;;;;;;;27.73;24.77;;;-7.10;84.00;-7.90;97112.00;;;;4922926;28;87576;-62
2022/01/04 08:39:56;;;;;;;28.02;25.02;;;-7.10;82.80;-7.80;97103.00;;;;4939420;28;87604;-62
2022/01/04 08:42:23;;;;;;;29.05;24.75;;;-7.10;82.30;-7.80;97107.00;;;;4940188;28;87644;-62
2022/01/04 08:44:50;;;;;;;30.45;25.70;;;-7.00;82.50;-7.80;97107.00;;;;4940231;28;87430;-62
2022/01/04 08:47:17;;;;;;;31.00;25.42;;;-7.00;82.40;-7.80;97108.00;;;;4940959;28;86297;-63
2022/01/04 08:49:43;;;;;;;28.67;25.30;;;-7.00;82.20;-7.70;97102.00;;;;4939742;28;87836;-62
2022/01/04 08:52:10;;;;;;;28.98;25.88;;;-6.90;81.40;-7.70;97093.00;;;;4939192;28;87584;-62
2022/01/04 08:54:37;;;;;;;29.83;24.77;;;-6.80;81.40;-7.60;97103.00;;;;4938986;28;87856;-62
2022/01/04 08:57:04;;;;;;;29.38;25.73;;;-6.80;81.50;-7.50;97109.00;;;;4939500;28;87092;-62
2022/01/04 08:59:32;;;;;;;29.58;24.35;;;-6.70;81.60;-7.50;97114.00;;;;4913588;28;87139;-62
2022/01/04 09:01:58;;;;;;;28.05;25.05;;;-6.60;81.20;-7.50;97111.00;;;;4940086;28;87846;-62
2022/01/04 09:04:25;;;;;;;32.67;27.33;;;-6.60;81.00;-7.50;97109.00;;;;4930041;28;87295;-62
2022/01/04 09:06:51;;;;;;;30.17;26.30;;;-6.70;81.30;-7.50;97118.00;;;;4940496;28;87363;-62
2022/01/04 09:09:18;;;;;;;30.05;25.70;;;-6.60;81.00;-7.40;97112.00;;;;4939644;28;87592;-62
2022/01/04 09:11:45;;;;;;;30.23;25.52;;;-6.60;80.60;-7.40;97109.00;;;;4942643;28;87394;-62
2022/01/04 09:14:25;;;;;;;28.88;25.20;;;-6.60;80.10;-7.40;97115.00;;;;4943005;28;87454;-62
2022/01/04 09:19:37;;;;;;;30.90;25.52;;;-6.50;79.10;-7.40;97114.00;;;;4931722;28;89676;-63
2022/01/04 09:22:04;;;;;;;30.08;24.15;;;-6.50;79.60;-7.30;97119.00;;;;4942577;28;89420;-62
2022/01/04 09:24:31;;;;;;;30.90;24.88;;;-6.60;79.10;-7.30;97129.00;;;;4943241;28;87301;-62
2022/01/04 09:26:58;;;;;;;29.33;25.33;;;-6.50;79.40;-7.30;97127.00;;;;4939216;28;87510;-62
2022/01/04 09:29:24;;;;;;;29.88;25.05;;;-6.50;79.60;-7.30;97132.00;;;;4943474;28;87104;-62
2022/01/04 09:31:54;;;;;;;30.55;26.35;;;-6.50;79.20;-7.30;97131.00;;;;4942767;28;87400;-62
2022/01/04 09:34:20;;;;;;;30.92;25.48;;;-6.50;79.10;-7.30;97133.00;;;;4943196;28;86957;-62
2022/01/04 09:36:47;;;;;;;34.03;25.90;;;-6.50;79.10;-7.40;97130.00;;;;4944274;28;86752;-62
2022/01/04 09:39:23;;;;;;;31.30;25.58;;;-6.60;78.80;-7.40;97125.00;;;;4943018;28;88587;-61
2022/01/04 09:41:53;;;;;;;30.73;24.85;;;-6.60;79.50;-7.40;97124.00;;;;4943346;28;87274;-63
2022/01/04 09:44:22;;;;;;;30.65;26.00;;;-6.60;79.20;-7.40;97124.00;;;;4942738;28;87755;-63
2022/01/04 09:46:48;;;;;;;30.73;25.98;;;-6.50;79.70;-7.30;97130.00;;;;4943630;28;87408;-63
2022/01/04 09:49:16;;;;;;;29.35;24.63;;;-6.50;80.00;-7.20;97126.00;;;;4942994;28;87554;-63
2022/01/04 09:51:44;;;;;;;28.48;24.33;;;-6.40;79.80;-7.30;97121.00;;;;4942882;28;87276;-63
2022/01/04 09:54:10;;;;;;;30.52;24.17;;;-6.50;79.10;-7.30;97121.00;;;;4942587;28;87390;-61
2022/01/04 09:56:36;;;;;;;28.48;24.27;;;-6.50;79.10;-7.30;97121.00;;;;4943078;28;87069;-62
2022/01/04 09:59:03;;;;;;;28.50;22.77;;;-6.50;79.20;-7.20;97128.00;;;;4916799;28;87529;-63
2022/01/04 10:01:39;;;;;;;28.30;23.60;;;-6.40;79.40;-7.20;97130.00;;;;4942383;28;87396;-63
2022/01/04 10:04:06;;;;;;;25.77;22.98;;;-6.40;79.30;-7.10;97124.00;;;;4929941;28;87044;-63
2022/01/04 10:06:34;;;;;;;25.63;22.48;;;-6.40;79.50;-7.00;97130.00;;;;4943646;28;87109;-63
2022/01/04 10:09:12;;;;;;;24.45;21.77;;;-6.20;79.40;-7.00;97130.00;;;;4941961;28;88403;-63
2022/01/04 10:11:44;;;;;;;27.73;22.00;;;-6.20;79.00;-7.00;97133.00;;;;4934980;28;88358;-63
2022/01/04 10:14:36;;;;;;;25.92;22.77;;;-6.30;79.00;-7.10;97131.00;;;;4948778;28;87429;-62
2022/01/04 10:17:27;;;;;;;27.55;23.20;;;-6.40;78.70;-7.10;97136.00;;;;4943320;28;87009;-63
2022/01/04 10:19:56;;;;;;;;;;;-6.40;79.60;-7.10;97145.00;;;;4934691;28;87153;-63
2022/01/04 10:22:27;;;;;;;27.20;23.25;;;-6.40;79.30;-7.10;97135.00;;;;4942447;28;87008;-63
2022/01/04 10:25:05;;;;;;;;;;;-6.50;79.80;-7.10;97120.00;;;;4943368;28;87491;-63
2022/01/04 10:27:34;;;;;;;28.42;24.25;;;-6.40;79.80;-7.20;97133.00;;;;4944597;28;86409;-63
2022/01/04 10:30:10;;;;;;;30.67;24.15;;;-6.40;80.70;-7.10;97141.00;;;;4942206;28;87602;-64
2022/01/04 10:33:03;;;;;;;29.52;24.08;;;-6.40;80.20;-7.10;97139.00;;;;4941839;28;87088;-63
2022/01/04 10:35:45;;;;;;;28.08;23.77;;;-6.40;80.00;-7.10;97144.00;;;;4939920;28;88805;-62
2022/01/04 10:38:15;;;;;;;;;;;-6.30;79.50;-7.10;97146.00;;;;4945002;28;87269;-63
2022/01/04 10:40:46;;;;;;;28.50;22.67;;;-6.30;78.40;-7.10;97145.00;;;;4943681;28;90002;-62
2022/01/04 10:43:23;;;;;;;27.95;22.75;;;-6.30;78.20;-7.10;97135.00;;;;4942743;28;88656;-62
2022/01/04 10:45:51;;;;;;;25.92;22.45;;;-6.30;78.40;-7.20;97136.00;;;;4941897;28;87294;-62
2022/01/04 10:48:27;;;;;;;30.60;23.05;;;-6.40;77.70;-7.20;97131.00;;;;4942074;28;87092;-62